Portada
METAR-TAF:

METAR-TAF

Aeroports :

Nan, Tailàndia

latitud: 18-46N, longitud: 100-46E, altitud: 200 m

Observació

L'informe es va fer fa 47 minuts, a les 06:00 UTC
Vent 4 kt amb direcció variable
Temperatura 29°C
Humitat 55%
Pressió 1014 hPa
Visibilitat 10 km o més
Escasses núvols a una alçada de 4300 ft

METAR: VTCN 030600Z VRB04KT 9999 FEW043 29/19 Q1014 NOSIG

Hora: 13:47 (06:47 UTC)

Pronòstic

L'informe es va fer fa 1 hora i 47 minuts, a les 05:00 UTC
Pronòstic vàlid del 03 a les 06 UTC al 04 a les 06 UTC
Vent 5 kt del Nord-Est
Visibilitat 10 km o més
Escasses núvols a una alçada de 2500 ft

TAF: VTCN 030500Z 0306/0406 04005KT 9999 FEW025

Observacions i pronòstics meteorològics de més de 4000 aeroports (METAR i TAF).

Les estacions disponibles són els punts grocs i vermells al mapa.

Posi el ratolí al punt desitjat per veure el nom de l'estació.

Feu clic per veure les observacions i els pronòstics meteorològics.

Per canviar el mapa: feu clic els botons verds amb una creu de color negre per apropar; al botó verd amb un guió per allunyar la imatge; o en les fletxes verdes per a mapes adjacents.


METAR-TAF: